createdAt,value
2024-02-28T00:02:02.738Z,5.86
2024-02-28T00:12:11.662Z,4.96
2024-02-28T00:22:20.495Z,6.38
2024-02-28T00:32:29.430Z,6.1
2024-02-28T00:42:38.318Z,6.31
2024-02-28T00:52:47.320Z,6.02
2024-02-28T01:02:56.236Z,3.61
2024-02-28T01:13:05.168Z,3.65
2024-02-28T01:23:14.150Z,2.79
2024-02-28T01:33:23.136Z,2.17
2024-02-28T01:43:32.069Z,1.73
2024-02-28T01:53:41.020Z,1.6
2024-02-28T02:03:49.865Z,2.21
2024-02-28T02:13:58.748Z,3.04
2024-02-28T02:24:10.396Z,1.55
2024-02-28T02:34:09.259Z,2.79
2024-02-28T02:44:18.046Z,3.23
2024-02-28T02:54:29.425Z,2.47
2024-02-28T03:04:28.266Z,2.9
2024-02-28T03:14:37.181Z,2.46
2024-02-28T03:24:46.048Z,3.29
2024-02-28T03:34:56.037Z,3.66
2024-02-28T03:44:54.881Z,2.79
2024-02-28T03:55:03.809Z,3.17
2024-02-28T04:05:12.740Z,2.46
2024-02-28T04:15:21.359Z,4.43
2024-02-28T04:25:30.181Z,2.9
2024-02-28T04:35:38.993Z,4.29
2024-02-28T04:45:48.180Z,4.57
2024-02-28T04:55:57.195Z,4.34
2024-02-28T05:06:06.201Z,2.92
2024-02-28T05:16:15.266Z,4.33
2024-02-28T05:26:24.240Z,4.65
2024-02-28T05:36:33.471Z,3.63
2024-02-28T05:46:42.278Z,3.37
2024-02-28T05:56:51.239Z,3.7
2024-02-28T06:07:00.661Z,4.06
2024-02-28T06:17:10.514Z,5.49
2024-02-28T06:27:09.522Z,4.89
2024-02-28T06:37:18.311Z,6.92
2024-02-28T06:47:28.414Z,4.27
2024-02-28T06:57:27.851Z,5.58
2024-02-28T07:07:36.960Z,9.93
2024-02-28T07:17:46.569Z,6.06
2024-02-28T07:27:55.883Z,6.03
2024-02-28T07:38:05.150Z,6.02
2024-02-28T07:48:15.824Z,5.13
2024-02-28T07:58:21.294Z,8.95
2024-02-28T08:08:21.053Z,10.51
2024-02-28T08:18:30.227Z,9.05
2024-02-28T08:28:39.454Z,3.95
2024-02-28T08:38:48.560Z,7.11
2024-02-28T08:48:57.922Z,7.48
2024-02-28T08:59:09.112Z,6.53
2024-02-28T09:09:10.482Z,5.68
2024-02-28T09:19:12.319Z,7.22
2024-02-28T09:29:11.760Z,8.62
2024-02-28T09:39:20.924Z,7.34
2024-02-28T09:49:30.300Z,5.82
2024-02-28T09:59:35.260Z,7.17
2024-02-28T10:09:39.746Z,8.35
2024-02-28T10:19:48.752Z,5.19
2024-02-28T10:29:57.956Z,6.82
2024-02-28T10:40:10.100Z,7.73
2024-02-28T10:50:09.474Z,6.88
2024-02-28T11:00:18.972Z,9.17
2024-02-28T11:10:28.193Z,6.68
2024-02-28T11:20:37.860Z,10.64
2024-02-28T11:30:47.472Z,9.86
2024-02-28T11:40:58.015Z,8.81
2024-02-28T11:50:57.319Z,9.14
2024-02-28T12:00:58.034Z,8.74
2024-02-28T12:11:07.841Z,7.12
2024-02-28T12:21:18.123Z,4.22
2024-02-28T12:31:18.732Z,5.5
2024-02-28T12:41:17.756Z,7.21
2024-02-28T12:51:26.984Z,4.57
2024-02-28T13:01:35.957Z,6.82
2024-02-28T13:11:44.955Z,3.45
2024-02-28T13:21:55.214Z,6.48
2024-02-28T13:31:54.530Z,3.05
2024-02-28T13:41:55.795Z,4.42
2024-02-28T13:52:04.789Z,5.67
2024-02-28T14:02:14.196Z,7.5
2024-02-28T14:12:27.184Z,9.22
2024-02-28T14:22:28.355Z,5.87
2024-02-28T14:32:30.000Z,4.46
2024-02-28T14:42:30.124Z,6.5
2024-02-28T14:52:32.084Z,5.76
2024-02-28T15:02:33.243Z,8.34
2024-02-28T15:12:42.823Z,6.72
2024-02-28T15:22:44.416Z,5.35
2024-02-28T15:32:53.475Z,6.26
2024-02-28T15:43:02.696Z,8.66
2024-02-28T15:53:13.337Z,5.46
2024-02-28T16:03:23.664Z,4.37
2024-02-28T16:13:22.781Z,4.21
2024-02-28T16:23:33.325Z,4.44
2024-02-28T16:33:32.236Z,5.15
2024-02-28T16:43:40.638Z,4.62
2024-02-28T16:53:49.541Z,12.08
2024-02-28T17:03:58.441Z,3.83
2024-02-28T17:14:07.281Z,3.62
2024-02-28T17:24:16.912Z,4.54
2024-02-28T17:34:26.027Z,4.98
2024-02-28T17:44:35.139Z,7.07
2024-02-28T17:54:45.565Z,4.7
2024-02-28T18:04:44.328Z,12.41
2024-02-28T18:14:45.692Z,10.49
2024-02-28T18:24:45.987Z,8.14
2024-02-28T18:34:53.927Z,4.66
2024-02-28T18:45:05.411Z,11.25
2024-02-28T18:55:05.495Z,10.4
2024-02-28T19:05:19.818Z,11.55
2024-02-28T19:15:20.292Z,13.67
2024-02-28T19:25:22.382Z,12.89
2024-02-28T19:35:23.563Z,10.61
2024-02-28T19:45:25.322Z,7.3
2024-02-28T20:05:25.794Z,14.66
2024-02-28T20:25:30.657Z,5.98
2024-02-28T20:35:39.583Z,2.97
2024-02-28T20:45:48.462Z,8.17
2024-02-28T20:55:57.206Z,14.1
2024-02-28T21:06:06.096Z,10.09
2024-02-28T21:16:14.887Z,9.66
2024-02-28T21:26:23.816Z,16.64
2024-02-28T21:36:32.625Z,15.22
2024-02-28T21:46:41.440Z,15.71
2024-02-28T21:56:50.252Z,14.17
2024-02-28T22:06:59.196Z,16.39
2024-02-28T22:17:08.016Z,17.55
2024-02-28T22:27:16.902Z,14.62
2024-02-28T22:37:25.722Z,14.37
2024-02-28T22:47:34.750Z,10.87
2024-02-28T22:57:43.574Z,18.02
2024-02-28T23:07:52.504Z,16.63
2024-02-28T23:18:01.378Z,19.78
2024-02-28T23:28:11.702Z,16.02
2024-02-28T23:38:20.468Z,15.93
2024-02-28T23:48:29.339Z,14.22
2024-02-28T23:58:38.049Z,15.23
